createdAt,value
2022-11-29T00:01:24.113Z,98.79
2022-11-29T00:03:52.240Z,97.41
2022-11-29T00:06:22.467Z,98.75
2022-11-29T00:08:50.697Z,98.10
2022-11-29T00:11:40.521Z,97.51
2022-11-29T00:14:12.323Z,98.05
2022-11-29T00:16:40.997Z,98.68
2022-11-29T00:19:09.599Z,98.59
2022-11-29T00:21:38.063Z,97.54
2022-11-29T00:24:06.824Z,98.62
2022-11-29T00:26:34.905Z,98.80
2022-11-29T00:29:02.839Z,98.32
2022-11-29T00:31:33.481Z,98.88
2022-11-29T00:34:03.685Z,98.86
2022-11-29T00:36:32.230Z,98.28
2022-11-29T00:39:00.227Z,98.87
2022-11-29T00:41:28.310Z,98.29
2022-11-29T00:43:56.502Z,99.05
2022-11-29T00:46:25.251Z,98.64
2022-11-29T00:48:54.659Z,97.99
2022-11-29T00:51:22.491Z,99.05
2022-11-29T00:53:50.709Z,98.47
2022-11-29T00:56:18.875Z,98.52
2022-11-29T00:58:48.544Z,98.57
2022-11-29T01:01:16.935Z,99.27
2022-11-29T01:03:44.957Z,99.16
2022-11-29T01:06:17.041Z,99.61
2022-11-29T01:08:45.755Z,99.72
2022-11-29T01:11:15.740Z,98.89
2022-11-29T01:13:45.415Z,98.99
2022-11-29T01:16:14.569Z,99.59
2022-11-29T01:18:43.296Z,99.74
2022-11-29T01:21:14.924Z,99.97
2022-11-29T01:23:43.457Z,99.65
2022-11-29T01:26:14.599Z,100.00
2022-11-29T01:28:42.923Z,99.73
2022-11-29T01:31:13.836Z,99.09
2022-11-29T01:33:42.693Z,99.21
2022-11-29T01:36:11.535Z,99.06
2022-11-29T01:38:42.517Z,99.47
2022-11-29T01:41:14.059Z,99.59
2022-11-29T01:44:01.329Z,99.74
2022-11-29T01:46:30.618Z,100.00
2022-11-29T01:49:01.819Z,99.96
2022-11-29T01:51:30.807Z,100.00
2022-11-29T01:54:00.874Z,99.65
2022-11-29T01:56:31.366Z,100.00
2022-11-29T01:58:59.592Z,99.94
2022-11-29T02:01:27.731Z,99.82
2022-11-29T02:03:56.081Z,99.86
2022-11-29T02:06:24.768Z,99.39
2022-11-29T02:08:52.807Z,99.80
2022-11-29T02:11:47.725Z,99.53
2022-11-29T02:14:38.753Z,100.00
2022-11-29T02:17:19.968Z,99.98
2022-11-29T02:20:23.988Z,99.11
2022-11-29T02:22:58.914Z,99.85
2022-11-29T02:25:49.502Z,100.00
2022-11-29T02:28:49.988Z,100.00
2022-11-29T02:31:50.141Z,99.93
2022-11-29T02:34:43.185Z,99.76
2022-11-29T02:37:24.820Z,100.00
2022-11-29T02:40:24.626Z,100.00
2022-11-29T02:43:41.616Z,100.00
2022-11-29T02:46:21.434Z,100.00
2022-11-29T02:49:04.349Z,100.00
2022-11-29T02:51:42.464Z,99.74
2022-11-29T02:54:19.811Z,100.00
2022-11-29T02:56:56.223Z,99.95
2022-11-29T02:59:40.866Z,100.00
2022-11-29T03:02:19.151Z,99.88
2022-11-29T03:04:52.095Z,99.92
2022-11-29T03:07:32.277Z,100.00
2022-11-29T03:10:10.159Z,100.00
2022-11-29T03:12:41.916Z,100.00
2022-11-29T03:15:20.655Z,99.95
2022-11-29T03:18:03.632Z,100.00
2022-11-29T03:20:46.392Z,100.00
2022-11-29T03:23:25.516Z,100.00
2022-11-29T03:25:58.863Z,100.00
2022-11-29T03:28:32.973Z,100.00
2022-11-29T03:31:08.781Z,100.00
2022-11-29T03:33:46.663Z,100.00
2022-11-29T03:36:22.787Z,100.00
2022-11-29T03:38:56.239Z,100.00
2022-11-29T03:41:29.443Z,100.00
2022-11-29T03:44:03.612Z,100.00
2022-11-29T03:46:39.398Z,100.00
2022-11-29T03:49:13.627Z,100.00
2022-11-29T03:51:55.776Z,100.00
2022-11-29T03:54:29.560Z,100.00
2022-11-29T03:56:58.131Z,100.00
2022-11-29T03:59:39.078Z,100.00
2022-11-29T04:02:48.232Z,100.00
2022-11-29T04:05:41.588Z,100.00
2022-11-29T04:08:42.464Z,100.00
2022-11-29T04:11:55.795Z,100.00
2022-11-29T04:14:34.971Z,100.00
2022-11-29T04:17:43.101Z,100.00
2022-11-29T04:20:42.032Z,100.00
2022-11-29T04:23:33.565Z,100.00
2022-11-29T04:26:29.687Z,100.00
2022-11-29T04:29:14.935Z,100.00
2022-11-29T04:32:02.684Z,100.00
2022-11-29T04:34:58.604Z,100.00
2022-11-29T04:37:55.926Z,100.00
2022-11-29T04:40:37.600Z,100.00
2022-11-29T04:43:20.948Z,100.00
2022-11-29T04:46:21.552Z,100.00
2022-11-29T04:49:20.241Z,100.00
2022-11-29T04:52:08.578Z,100.00
2022-11-29T04:54:44.594Z,100.00
2022-11-29T04:57:23.874Z,100.00
2022-11-29T05:00:01.337Z,100.00
2022-11-29T05:02:36.353Z,100.00
2022-11-29T05:05:19.663Z,100.00
2022-11-29T05:07:54.956Z,100.00
2022-11-29T05:10:29.943Z,100.00
2022-11-29T05:13:08.391Z,100.00
2022-11-29T05:15:56.921Z,100.00
2022-11-29T05:18:36.826Z,100.00
2022-11-29T05:21:12.415Z,100.00
2022-11-29T05:23:50.016Z,100.00
2022-11-29T05:26:27.094Z,100.00
2022-11-29T05:29:03.164Z,100.00
2022-11-29T05:31:46.863Z,100.00
2022-11-29T05:34:39.746Z,100.00
2022-11-29T05:37:23.187Z,100.00
2022-11-29T05:40:04.744Z,100.00
2022-11-29T05:43:05.276Z,100.00
2022-11-29T05:45:37.396Z,100.00
2022-11-29T05:48:12.231Z,100.00
2022-11-29T05:50:47.619Z,100.00
2022-11-29T05:53:24.747Z,100.00
2022-11-29T05:56:06.986Z,100.00
2022-11-29T05:58:43.398Z,100.00
2022-11-29T06:01:23.929Z,100.00
2022-11-29T06:04:01.374Z,100.00
2022-11-29T06:06:39.646Z,100.00
2022-11-29T06:09:16.213Z,100.00
2022-11-29T06:11:48.091Z,100.00
2022-11-29T06:14:34.301Z,100.00
2022-11-29T06:17:26.001Z,100.00
2022-11-29T06:20:11.172Z,100.00
2022-11-29T06:22:59.624Z,100.00
2022-11-29T06:25:47.285Z,100.00
2022-11-29T06:28:29.463Z,100.00
2022-11-29T06:31:03.905Z,100.00
2022-11-29T06:33:40.499Z,100.00
2022-11-29T06:36:17.817Z,100.00
2022-11-29T06:38:46.036Z,100.00
2022-11-29T06:41:20.599Z,100.00
2022-11-29T06:43:50.039Z,100.00
2022-11-29T06:46:28.132Z,100.00
2022-11-29T06:49:03.985Z,100.00
2022-11-29T06:51:38.313Z,100.00
2022-11-29T06:54:20.667Z,100.00
2022-11-29T06:57:04.154Z,100.00
2022-11-29T06:59:45.338Z,100.00
2022-11-29T07:02:28.944Z,100.00
2022-11-29T07:05:11.166Z,100.00
2022-11-29T07:07:40.157Z,100.00
2022-11-29T07:10:15.201Z,100.00
2022-11-29T07:12:45.814Z,100.00
2022-11-29T07:15:18.765Z,100.00
2022-11-29T07:17:58.749Z,100.00
2022-11-29T07:20:38.214Z,100.00
2022-11-29T07:23:14.681Z,100.00
2022-11-29T07:25:53.725Z,100.00
2022-11-29T07:28:37.290Z,100.00
2022-11-29T07:31:11.876Z,100.00
2022-11-29T07:33:50.985Z,100.00
2022-11-29T07:36:30.732Z,100.00
2022-11-29T07:39:11.522Z,100.00
2022-11-29T07:41:46.383Z,100.00
2022-11-29T07:44:28.631Z,100.00
2022-11-29T07:46:56.654Z,100.00
2022-11-29T07:49:24.764Z,100.00
2022-11-29T07:51:52.782Z,100.00
2022-11-29T07:54:22.139Z,100.00
2022-11-29T07:56:50.259Z,100.00
2022-11-29T07:59:20.207Z,100.00
2022-11-29T08:01:48.351Z,100.00
2022-11-29T08:04:17.161Z,100.00
2022-11-29T08:06:45.248Z,100.00
2022-11-29T08:09:13.162Z,100.00
2022-11-29T08:11:41.213Z,100.00
2022-11-29T08:14:09.505Z,100.00
2022-11-29T08:16:39.048Z,100.00
2022-11-29T08:19:07.215Z,100.00
2022-11-29T08:21:35.188Z,100.00
2022-11-29T08:24:03.133Z,100.00
2022-11-29T08:26:31.782Z,100.00
2022-11-29T08:28:59.961Z,100.00
2022-11-29T08:31:27.897Z,100.00
2022-11-29T08:33:57.396Z,100.00
2022-11-29T08:36:25.350Z,100.00
2022-11-29T08:39:01.268Z,100.00
2022-11-29T08:41:32.142Z,100.00
2022-11-29T08:44:00.213Z,100.00
2022-11-29T08:46:48.558Z,100.00
2022-11-29T08:49:18.467Z,100.00
2022-11-29T08:51:46.386Z,100.00
2022-11-29T08:54:13.505Z,100.00
2022-11-29T08:59:29.400Z,100.00
2022-11-29T09:01:57.452Z,100.00
2022-11-29T09:04:26.931Z,100.00
2022-11-29T09:06:54.948Z,100.00
2022-11-29T09:09:23.051Z,100.00
2022-11-29T09:11:52.225Z,100.00
2022-11-29T09:14:22.331Z,100.00
2022-11-29T09:16:50.351Z,100.00
2022-11-29T09:19:18.517Z,100.00
2022-11-29T09:21:47.941Z,100.00
2022-11-29T09:24:16.263Z,100.00
2022-11-29T09:26:48.245Z,100.00
2022-11-29T09:29:17.741Z,100.00
2022-11-29T09:31:46.071Z,100.00
2022-11-29T09:34:14.185Z,100.00
2022-11-29T09:36:44.226Z,100.00
2022-11-29T09:39:13.795Z,100.00
2022-11-29T09:41:58.493Z,100.00
2022-11-29T09:44:34.308Z,100.00
2022-11-29T09:47:18.176Z,100.00
2022-11-29T09:50:13.222Z,100.00
2022-11-29T09:52:51.731Z,100.00
2022-11-29T09:55:43.107Z,100.00
2022-11-29T09:58:18.049Z,100.00
2022-11-29T10:00:50.595Z,99.68
2022-11-29T10:03:25.537Z,100.00
2022-11-29T10:06:00.044Z,99.85
2022-11-29T10:08:34.115Z,100.00
2022-11-29T10:11:14.501Z,100.00
2022-11-29T10:13:46.664Z,100.00
2022-11-29T10:16:20.006Z,100.00
2022-11-29T10:18:52.544Z,99.56
2022-11-29T10:21:26.216Z,99.33
2022-11-29T10:23:58.773Z,99.37
2022-11-29T10:26:34.777Z,99.70
2022-11-29T10:29:04.038Z,99.52
2022-11-29T10:31:40.244Z,99.34
2022-11-29T10:34:14.367Z,100.00
2022-11-29T10:36:45.999Z,100.00
2022-11-29T10:39:22.405Z,100.00
2022-11-29T10:41:56.955Z,99.94
2022-11-29T10:44:26.054Z,99.67
2022-11-29T10:46:54.860Z,99.79
2022-11-29T10:49:27.479Z,98.48
2022-11-29T10:51:55.678Z,97.81
2022-11-29T10:54:35.015Z,98.31
2022-11-29T10:57:14.300Z,99.31
2022-11-29T10:59:42.612Z,99.76
2022-11-29T11:02:19.693Z,99.40
2022-11-29T11:04:50.316Z,99.54
2022-11-29T11:07:29.020Z,99.62
2022-11-29T11:09:58.904Z,100.00
2022-11-29T11:12:30.689Z,99.67
2022-11-29T11:15:27.695Z,98.09
2022-11-29T11:18:00.167Z,98.15
2022-11-29T11:20:31.552Z,99.06
2022-11-29T11:23:02.047Z,98.42
2022-11-29T11:25:34.763Z,98.64
2022-11-29T11:28:20.465Z,98.59
2022-11-29T11:30:53.520Z,98.18
2022-11-29T11:33:25.275Z,98.19
2022-11-29T11:36:09.741Z,98.29
2022-11-29T11:38:39.239Z,99.34
2022-11-29T11:41:17.989Z,98.75
2022-11-29T11:43:54.507Z,98.98
2022-11-29T11:46:22.655Z,100.00
2022-11-29T11:48:52.672Z,99.57
2022-11-29T11:51:24.303Z,99.13
2022-11-29T11:53:55.736Z,99.23
2022-11-29T11:56:26.256Z,99.04
2022-11-29T11:58:58.159Z,99.42
2022-11-29T12:01:30.796Z,99.37
2022-11-29T12:04:04.670Z,98.44
2022-11-29T12:06:48.018Z,99.03
2022-11-29T12:09:24.809Z,98.44
2022-11-29T12:12:01.505Z,98.42
2022-11-29T12:14:42.576Z,97.96
2022-11-29T12:17:20.114Z,99.10
2022-11-29T12:20:00.681Z,98.01
2022-11-29T12:22:34.080Z,97.42
2022-11-29T12:25:07.595Z,97.25
2022-11-29T12:27:35.592Z,98.25
2022-11-29T12:30:12.744Z,98.77
2022-11-29T12:33:01.160Z,99.04
2022-11-29T12:35:54.696Z,98.71
2022-11-29T12:38:50.075Z,99.01
2022-11-29T12:41:30.477Z,98.97
2022-11-29T12:44:08.194Z,99.58
2022-11-29T12:46:38.562Z,99.18
2022-11-29T12:49:17.383Z,99.83
2022-11-29T12:51:54.620Z,99.86
2022-11-29T12:54:41.442Z,98.30
2022-11-29T12:57:16.788Z,98.53
2022-11-29T13:00:05.359Z,98.19
2022-11-29T13:02:48.726Z,98.73
2022-11-29T13:05:25.243Z,99.34
2022-11-29T13:08:12.553Z,99.63
2022-11-29T13:10:57.032Z,99.99
2022-11-29T13:13:36.204Z,99.84
2022-11-29T13:16:10.150Z,99.58
2022-11-29T13:18:52.798Z,99.64
2022-11-29T13:21:28.942Z,100.00
2022-11-29T13:24:09.739Z,99.47
2022-11-29T13:26:40.140Z,99.94
2022-11-29T13:29:14.433Z,100.00
2022-11-29T13:31:43.207Z,99.98
2022-11-29T13:34:18.900Z,99.34
2022-11-29T13:36:55.293Z,99.92
2022-11-29T13:39:36.710Z,100.00
2022-11-29T13:42:08.761Z,100.00
2022-11-29T13:44:46.021Z,100.00
2022-11-29T13:47:15.782Z,100.00
2022-11-29T13:50:02.598Z,100.00
2022-11-29T13:52:43.047Z,100.00
2022-11-29T13:55:31.523Z,100.00
2022-11-29T13:58:22.280Z,100.00
2022-11-29T14:00:52.272Z,100.00
2022-11-29T14:03:31.589Z,99.97
2022-11-29T14:06:13.968Z,100.00
2022-11-29T14:09:22.174Z,99.88
2022-11-29T14:11:59.435Z,100.00
2022-11-29T14:14:32.009Z,99.75
2022-11-29T14:17:02.885Z,99.24
2022-11-29T14:19:34.308Z,99.91
2022-11-29T14:22:33.553Z,99.93
2022-11-29T14:25:21.720Z,100.00
2022-11-29T14:28:02.686Z,100.00
2022-11-29T14:30:46.511Z,99.77
2022-11-29T14:33:32.911Z,99.95
2022-11-29T14:36:14.519Z,100.00
2022-11-29T14:38:50.970Z,99.30
2022-11-29T14:41:28.683Z,99.22
2022-11-29T14:44:15.724Z,99.54
2022-11-29T14:46:44.181Z,100.00
2022-11-29T14:49:23.518Z,99.98
2022-11-29T14:52:17.949Z,100.00
2022-11-29T14:54:59.884Z,100.00
2022-11-29T14:58:06.264Z,100.00
2022-11-29T15:00:44.580Z,100.00
2022-11-29T15:03:16.637Z,100.00
2022-11-29T15:05:46.959Z,100.00
2022-11-29T15:08:21.979Z,100.00
2022-11-29T15:10:54.624Z,100.00
2022-11-29T15:13:27.200Z,100.00
2022-11-29T15:16:12.957Z,100.00
2022-11-29T15:19:03.014Z,100.00
2022-11-29T15:21:38.931Z,100.00
2022-11-29T15:24:11.992Z,100.00
2022-11-29T15:26:56.675Z,100.00
2022-11-29T15:29:25.307Z,100.00
2022-11-29T15:31:55.396Z,100.00
2022-11-29T15:34:31.590Z,100.00
2022-11-29T15:36:59.527Z,100.00
2022-11-29T15:39:30.860Z,100.00
2022-11-29T15:42:04.572Z,100.00
2022-11-29T15:44:33.939Z,100.00
2022-11-29T15:47:22.030Z,100.00
2022-11-29T15:49:50.762Z,100.00
2022-11-29T15:52:25.820Z,100.00
2022-11-29T15:55:00.085Z,100.00
2022-11-29T15:57:35.192Z,100.00
2022-11-29T16:00:07.167Z,100.00
2022-11-29T16:02:37.805Z,100.00
2022-11-29T16:05:15.855Z,100.00
2022-11-29T16:07:46.492Z,100.00
2022-11-29T16:10:17.970Z,100.00
2022-11-29T16:12:55.426Z,100.00
2022-11-29T16:15:30.725Z,100.00
2022-11-29T16:18:18.989Z,100.00
2022-11-29T16:21:00.293Z,100.00
2022-11-29T16:23:34.848Z,100.00
2022-11-29T16:26:08.277Z,100.00
2022-11-29T16:28:43.206Z,100.00
2022-11-29T16:31:18.020Z,100.00
2022-11-29T16:33:47.683Z,100.00
2022-11-29T16:36:19.988Z,100.00
2022-11-29T16:38:50.494Z,100.00
2022-11-29T16:41:33.548Z,99.98
2022-11-29T16:44:04.908Z,99.94
2022-11-29T16:46:40.052Z,100.00
2022-11-29T16:49:36.454Z,99.59
2022-11-29T16:52:18.641Z,100.00
2022-11-29T16:54:46.548Z,100.00
2022-11-29T16:57:14.534Z,99.92
2022-11-29T16:59:43.912Z,99.68
2022-11-29T17:02:12.625Z,99.08
2022-11-29T17:04:40.811Z,99.80
2022-11-29T17:07:13.886Z,99.85
2022-11-29T17:09:41.908Z,100.00
2022-11-29T17:12:14.229Z,100.00
2022-11-29T17:14:43.874Z,100.00
2022-11-29T17:17:14.873Z,99.43
2022-11-29T17:19:42.785Z,98.38
2022-11-29T17:22:10.608Z,98.63
2022-11-29T17:24:44.787Z,99.48
2022-11-29T17:27:15.366Z,99.28
2022-11-29T17:29:44.573Z,99.59
2022-11-29T17:32:12.416Z,100.00
2022-11-29T17:34:40.288Z,100.00
2022-11-29T17:37:08.184Z,99.57
2022-11-29T17:39:36.022Z,99.63
2022-11-29T17:42:03.878Z,99.14
2022-11-29T17:44:33.969Z,99.35
2022-11-29T17:47:04.628Z,100.00
2022-11-29T17:49:32.442Z,99.72
2022-11-29T17:52:00.223Z,98.81
2022-11-29T17:54:28.072Z,99.66
2022-11-29T17:56:56.427Z,99.76
2022-11-29T17:59:24.366Z,99.80
2022-11-29T18:01:52.391Z,99.17
2022-11-29T18:04:21.978Z,99.32
2022-11-29T18:06:50.683Z,99.33
2022-11-29T18:09:20.004Z,99.98
2022-11-29T18:11:58.595Z,99.13
2022-11-29T18:14:29.325Z,99.58
2022-11-29T18:17:01.036Z,99.85
2022-11-29T18:19:31.368Z,99.67
2022-11-29T18:21:59.230Z,100.00
2022-11-29T18:24:27.049Z,99.89
2022-11-29T18:26:54.902Z,99.86
2022-11-29T18:29:23.193Z,100.00
2022-11-29T18:31:51.790Z,99.50
2022-11-29T18:34:19.653Z,99.34
2022-11-29T18:36:49.803Z,100.00
2022-11-29T18:39:20.318Z,99.36
2022-11-29T18:41:50.358Z,100.00
2022-11-29T18:44:20.275Z,100.00
2022-11-29T18:46:48.770Z,100.00
2022-11-29T18:49:18.323Z,99.81
2022-11-29T18:51:48.446Z,100.00
2022-11-29T18:54:17.830Z,100.00
2022-11-29T18:56:46.635Z,100.00
2022-11-29T18:59:17.916Z,100.00
2022-11-29T19:01:48.020Z,100.00
2022-11-29T19:04:18.310Z,99.48
2022-11-29T19:06:46.968Z,99.59
2022-11-29T19:09:20.967Z,99.44
2022-11-29T19:11:49.774Z,99.29
2022-11-29T19:14:18.052Z,98.54
2022-11-29T19:16:47.580Z,99.01
2022-11-29T19:19:15.464Z,99.10
2022-11-29T19:21:43.567Z,96.89
2022-11-29T19:24:15.143Z,97.48
2022-11-29T19:26:46.001Z,96.77
2022-11-29T19:29:14.534Z,96.15
2022-11-29T19:31:43.069Z,95.70
2022-11-29T19:34:11.266Z,96.75
2022-11-29T19:36:43.588Z,97.49
2022-11-29T19:39:14.306Z,97.65
2022-11-29T19:41:45.541Z,97.48
2022-11-29T19:44:13.779Z,97.76
2022-11-29T19:46:45.751Z,97.83
2022-11-29T19:49:15.528Z,97.77
2022-11-29T19:51:44.196Z,96.96
2022-11-29T19:54:12.945Z,97.19
2022-11-29T19:56:41.136Z,98.07
2022-11-29T19:59:10.553Z,98.13
2022-11-29T20:01:42.395Z,98.23
2022-11-29T20:04:12.036Z,98.16
2022-11-29T20:06:40.119Z,98.29
2022-11-29T20:09:08.282Z,97.68
2022-11-29T20:11:36.291Z,97.71
2022-11-29T20:14:08.540Z,97.69
2022-11-29T20:16:39.877Z,97.73
2022-11-29T20:19:12.231Z,98.02
2022-11-29T20:21:44.130Z,97.38
2022-11-29T20:24:14.628Z,97.49
2022-11-29T20:26:44.556Z,97.22
2022-11-29T20:29:13.637Z,96.87
2022-11-29T20:31:49.546Z,97.69
2022-11-29T20:34:21.889Z,97.34
2022-11-29T20:37:17.175Z,97.71
2022-11-29T20:39:51.293Z,97.33
2022-11-29T20:42:43.977Z,97.01
2022-11-29T20:45:14.406Z,96.78
2022-11-29T20:47:50.523Z,96.53
2022-11-29T20:50:23.131Z,96.66
2022-11-29T20:53:06.345Z,96.93
2022-11-29T20:55:38.704Z,95.95
2022-11-29T20:58:08.334Z,95.98
2022-11-29T21:00:36.785Z,96.50
2022-11-29T21:03:05.979Z,96.05
2022-11-29T21:05:33.997Z,97.04
2022-11-29T21:08:03.027Z,96.47
2022-11-29T21:10:31.027Z,97.00
2022-11-29T21:12:59.448Z,97.66
2022-11-29T21:15:28.215Z,97.27
2022-11-29T21:17:56.739Z,97.00
2022-11-29T21:20:28.499Z,97.37
2022-11-29T21:23:02.911Z,97.64
2022-11-29T21:25:43.126Z,97.16
2022-11-29T21:28:14.465Z,97.54
2022-11-29T21:30:43.034Z,97.94
2022-11-29T21:33:12.067Z,96.65
2022-11-29T21:35:41.621Z,96.10
2022-11-29T21:38:14.514Z,96.98
2022-11-29T21:40:42.380Z,96.35
2022-11-29T21:43:10.262Z,97.20
2022-11-29T21:45:38.145Z,96.89
2022-11-29T21:48:29.707Z,96.71
2022-11-29T21:50:58.881Z,96.13
2022-11-29T21:53:27.893Z,96.92
2022-11-29T21:55:59.224Z,97.09
2022-11-29T21:58:27.849Z,96.64
2022-11-29T22:00:55.780Z,96.61
2022-11-29T22:03:23.707Z,96.82
2022-11-29T22:05:51.635Z,96.87
2022-11-29T22:08:21.068Z,97.77
2022-11-29T22:10:48.944Z,96.94
2022-11-29T22:13:16.852Z,96.94
2022-11-29T22:15:45.069Z,97.63
2022-11-29T22:18:12.980Z,97.05
2022-11-29T22:20:40.890Z,96.71
2022-11-29T22:23:08.723Z,96.49
2022-11-29T22:25:37.899Z,96.81
2022-11-29T22:28:05.791Z,96.75
2022-11-29T22:30:33.581Z,97.22
2022-11-29T22:33:01.747Z,97.27
2022-11-29T22:35:29.597Z,97.28
2022-11-29T22:37:57.535Z,97.02
2022-11-29T22:40:25.470Z,96.45
2022-11-29T22:42:54.938Z,96.34
2022-11-29T22:45:22.711Z,96.00
2022-11-29T22:47:50.544Z,97.17
2022-11-29T22:50:18.469Z,96.91
2022-11-29T22:52:46.424Z,96.45
2022-11-29T22:55:14.326Z,97.04
2022-11-29T22:57:42.135Z,96.20
2022-11-29T23:00:13.897Z,96.24
2022-11-29T23:02:41.783Z,97.61
2022-11-29T23:05:09.856Z,98.21
2022-11-29T23:07:37.734Z,96.47
2022-11-29T23:10:06.457Z,97.23
2022-11-29T23:12:34.255Z,96.79
2022-11-29T23:15:02.780Z,97.49
2022-11-29T23:17:31.957Z,97.21
2022-11-29T23:19:59.730Z,98.12
2022-11-29T23:22:27.846Z,97.09
2022-11-29T23:24:55.719Z,96.94
2022-11-29T23:27:24.004Z,97.29
2022-11-29T23:29:51.808Z,97.14
2022-11-29T23:32:19.647Z,97.59
2022-11-29T23:34:49.289Z,97.24
2022-11-29T23:37:17.151Z,97.43
2022-11-29T23:39:45.015Z,96.49
2022-11-29T23:42:12.808Z,97.48
2022-11-29T23:44:40.594Z,97.12
2022-11-29T23:47:08.427Z,97.21
2022-11-29T23:49:39.781Z,97.93
2022-11-29T23:52:08.962Z,97.44
2022-11-29T23:54:36.890Z,98.10
2022-11-29T23:57:04.827Z,98.21
2022-11-29T23:59:32.698Z,98.38
